createdAt,value
2019-04-21T00:00:15.113Z,99.90
2019-04-21T00:02:44.098Z,99.90
2019-04-21T00:05:30.735Z,99.90
2019-04-21T00:08:07.526Z,99.90
2019-04-21T00:10:36.492Z,99.90
2019-04-21T00:12:57.350Z,99.90
2019-04-21T00:15:21.723Z,99.90
2019-04-21T00:17:43.616Z,99.90
2019-04-21T00:20:20.432Z,99.90
2019-04-21T00:22:53.636Z,99.90
2019-04-21T00:25:27.548Z,99.90
2019-04-21T00:28:02.076Z,99.90
2019-04-21T00:30:35.440Z,99.90
2019-04-21T00:32:54.491Z,99.90
2019-04-21T00:35:18.757Z,99.90
2019-04-21T00:38:00.320Z,99.90
2019-04-21T00:40:35.207Z,99.90
2019-04-21T00:42:59.920Z,99.90
2019-04-21T00:45:28.821Z,99.90
2019-04-21T00:48:04.048Z,99.90
2019-04-21T00:50:40.603Z,99.90
2019-04-21T00:53:19.530Z,99.90
2019-04-21T00:55:57.333Z,99.90
2019-04-21T00:58:30.055Z,99.90
2019-04-21T01:01:00.446Z,99.90
2019-04-21T01:03:25.816Z,99.90
2019-04-21T01:05:57.646Z,99.90
2019-04-21T01:08:29.759Z,99.90
2019-04-21T01:10:48.988Z,99.90
2019-04-21T01:13:27.750Z,99.90
2019-04-21T01:16:14.521Z,99.90
2019-04-21T01:18:31.121Z,99.90
2019-04-21T01:20:34.359Z,99.90
2019-04-21T01:23:02.634Z,99.90
2019-04-21T01:25:39.321Z,99.90
2019-04-21T01:28:19.965Z,99.90
2019-04-21T01:30:52.059Z,99.90
2019-04-21T01:33:26.052Z,99.90
2019-04-21T01:35:55.481Z,99.90
2019-04-21T01:38:31.604Z,99.90
2019-04-21T01:40:53.150Z,99.90
2019-04-21T01:43:24.935Z,99.90
2019-04-21T01:45:48.972Z,99.90
2019-04-21T01:48:22.877Z,99.90
2019-04-21T01:50:51.268Z,99.90
2019-04-21T01:53:45.301Z,99.90
2019-04-21T01:56:43.207Z,99.90
2019-04-21T01:58:57.629Z,99.90
2019-04-21T02:01:49.293Z,99.90
2019-04-21T02:04:12.179Z,99.90
2019-04-21T02:06:41.331Z,99.90
2019-04-21T02:09:04.920Z,99.90
2019-04-21T02:11:44.347Z,99.90
2019-04-21T02:14:09.968Z,99.90
2019-04-21T02:16:40.488Z,99.90
2019-04-21T02:19:04.359Z,99.90
2019-04-21T02:21:36.945Z,99.90
2019-04-21T02:24:15.207Z,99.90
2019-04-21T02:26:41.172Z,99.90
2019-04-21T02:29:15.531Z,99.90
2019-04-21T02:34:19.635Z,99.90
2019-04-21T02:37:13.238Z,99.90
2019-04-21T02:41:54.475Z,99.90
2019-04-21T02:44:35.940Z,99.90
2019-04-21T02:46:50.606Z,99.90
2019-04-21T02:49:35.510Z,99.90
2019-04-21T02:51:58.581Z,99.90
2019-04-21T02:54:41.075Z,99.90
2019-04-21T02:56:53.385Z,99.90
2019-04-21T02:59:23.326Z,99.90
2019-04-21T03:02:17.007Z,99.90
2019-04-21T03:04:53.116Z,99.90
2019-04-21T03:09:57.870Z,99.90
2019-04-21T03:17:43.237Z,99.90
2019-04-21T03:20:00.363Z,99.90
2019-04-21T03:30:35.699Z,99.90
2019-04-21T03:33:16.593Z,99.90
2019-04-21T03:45:03.629Z,99.90
2019-04-21T03:47:46.471Z,99.90
2019-04-21T03:50:27.917Z,99.90
2019-04-21T03:52:39.422Z,99.90
2019-04-21T04:00:42.111Z,99.90
2019-04-21T04:09:52.528Z,99.90
2019-04-21T04:12:01.060Z,99.90
2019-04-21T04:14:40.485Z,99.90
2019-04-21T04:17:11.876Z,99.90
2019-04-21T04:22:17.557Z,99.90
2019-04-21T04:24:39.581Z,99.90
2019-04-21T04:27:20.896Z,99.90
2019-04-21T04:29:31.755Z,99.90
2019-04-21T04:32:25.225Z,99.90
2019-04-21T04:34:41.692Z,99.90
2019-04-21T04:37:12.264Z,99.90
2019-04-21T04:40:02.910Z,99.90
2019-04-21T04:47:22.882Z,99.90
2019-04-21T04:49:53.407Z,99.90
2019-04-21T04:52:34.486Z,99.90
2019-04-21T04:57:45.106Z,99.90
2019-04-21T05:02:33.787Z,99.90
2019-04-21T05:05:07.084Z,99.90
2019-04-21T05:07:40.132Z,99.90
2019-04-21T05:15:04.806Z,99.90
2019-04-21T05:24:51.424Z,99.90
2019-04-21T05:27:33.421Z,99.90
2019-04-21T05:30:22.025Z,99.90
2019-04-21T05:32:52.813Z,99.90
2019-04-21T05:35:39.226Z,99.90
2019-04-21T05:38:17.462Z,99.90
2019-04-21T05:40:39.868Z,99.90
2019-04-21T05:43:25.608Z,99.90
2019-04-21T05:45:52.027Z,99.90
2019-04-21T05:48:33.621Z,99.90
2019-04-21T05:50:55.504Z,99.90
2019-04-21T05:53:33.749Z,99.90
2019-04-21T05:55:56.926Z,99.90
2019-04-21T05:58:29.972Z,99.90
2019-04-21T06:03:43.073Z,99.90
2019-04-21T06:06:08.672Z,99.90
2019-04-21T06:08:31.431Z,99.90
2019-04-21T06:11:02.028Z,99.90
2019-04-21T06:13:34.809Z,99.90
2019-04-21T06:16:05.842Z,99.90
2019-04-21T06:21:08.367Z,99.80
2019-04-21T06:23:30.246Z,99.80
2019-04-21T06:28:35.960Z,99.90
2019-04-21T06:31:14.624Z,99.30
2019-04-21T06:33:39.431Z,99.30
2019-04-21T06:39:12.269Z,98.90
2019-04-21T06:41:34.005Z,98.60
2019-04-21T06:44:08.206Z,98.60
2019-04-21T06:46:35.231Z,98.30
2019-04-21T06:49:02.837Z,98.10
2019-04-21T06:51:46.882Z,98.00
2019-04-21T06:54:10.126Z,98.40
2019-04-21T06:56:42.400Z,97.70
2019-04-21T06:59:05.011Z,97.30
2019-04-21T07:01:36.358Z,97.20
2019-04-21T07:04:13.213Z,97.30
2019-04-21T07:06:43.677Z,97.50
2019-04-21T07:09:16.262Z,96.80
2019-04-21T07:11:33.161Z,96.70
2019-04-21T07:14:19.559Z,96.50
2019-04-21T07:16:40.481Z,96.40
2019-04-21T07:19:14.584Z,96.30
2019-04-21T07:21:38.477Z,96.10
2019-04-21T07:24:17.180Z,95.80
2019-04-21T07:26:36.848Z,95.60
2019-04-21T07:29:12.908Z,95.30
2019-04-21T07:31:41.619Z,94.90
2019-04-21T07:34:07.844Z,94.80
2019-04-21T07:36:48.099Z,94.40
2019-04-21T07:39:00.226Z,94.40
2019-04-21T07:41:31.001Z,94.10
2019-04-21T07:43:59.197Z,94.00
2019-04-21T07:46:28.938Z,93.90
2019-04-21T07:49:12.495Z,93.70
2019-04-21T07:52:05.655Z,93.30
2019-04-21T07:54:36.032Z,93.00
2019-04-21T07:56:52.520Z,92.80
2019-04-21T07:59:56.230Z,92.70
2019-04-21T08:02:00.812Z,92.50
2019-04-21T08:06:58.983Z,91.80
2019-04-21T08:09:33.022Z,90.10
2019-04-21T08:11:58.709Z,89.40
2019-04-21T08:17:04.935Z,88.70
2019-04-21T08:19:32.172Z,86.40
2019-04-21T08:22:05.221Z,86.60
2019-04-21T08:24:35.867Z,85.20
2019-04-21T08:27:04.916Z,82.90
2019-04-21T08:32:07.949Z,78.10
2019-04-21T08:34:34.681Z,75.30
2019-04-21T08:37:05.490Z,77.60
2019-04-21T08:39:39.494Z,73.30
2019-04-21T08:42:04.428Z,72.40
2019-04-21T08:44:40.481Z,70.10
2019-04-21T08:47:12.959Z,71.40
2019-04-21T08:49:41.354Z,70.90
2019-04-21T08:52:09.865Z,69.50
2019-04-21T08:54:43.190Z,68.70
2019-04-21T08:57:41.460Z,66.90
2019-04-21T09:00:22.926Z,68.00
2019-04-21T09:02:58.664Z,63.70
2019-04-21T09:05:17.558Z,62.60
2019-04-21T09:07:51.036Z,60.70
2019-04-21T09:10:25.081Z,61.00
2019-04-21T09:12:46.622Z,61.40
2019-04-21T09:15:22.361Z,62.40
2019-04-21T09:17:44.667Z,61.50
2019-04-21T09:22:55.683Z,59.20
2019-04-21T09:25:29.502Z,58.30
2019-04-21T09:27:51.739Z,59.40
2019-04-21T09:30:22.041Z,59.60
2019-04-21T09:33:09.913Z,58.30
2019-04-21T09:36:01.226Z,55.70
2019-04-21T09:39:00.202Z,55.60
2019-04-21T09:41:22.920Z,52.60
2019-04-21T09:43:53.635Z,52.80
2019-04-21T09:46:20.948Z,52.60
2019-04-21T09:48:57.247Z,52.00
2019-04-21T09:51:20.868Z,46.90
2019-04-21T09:53:58.348Z,46.60
2019-04-21T09:56:31.532Z,49.70
2019-04-21T09:59:04.074Z,51.80
2019-04-21T10:01:29.891Z,51.40
2019-04-21T10:03:59.744Z,52.40
2019-04-21T10:06:26.070Z,51.50
2019-04-21T10:08:58.578Z,50.50
2019-04-21T10:11:26.736Z,51.00
2019-04-21T10:13:55.351Z,48.90
2019-04-21T10:16:42.796Z,48.90
2019-04-21T10:19:13.085Z,49.30
2019-04-21T10:21:42.366Z,49.80
2019-04-21T10:24:12.405Z,49.60
2019-04-21T10:26:41.034Z,50.20
2019-04-21T10:29:16.978Z,49.90
2019-04-21T10:31:40.645Z,51.70
2019-04-21T10:34:09.360Z,50.30
2019-04-21T10:36:38.041Z,48.20
2019-04-21T10:39:07.182Z,47.60
2019-04-21T10:41:37.334Z,47.80
2019-04-21T10:44:09.351Z,47.70
2019-04-21T10:46:40.482Z,47.90
2019-04-21T10:49:09.027Z,47.70
2019-04-21T10:51:38.943Z,47.80
2019-04-21T10:54:08.241Z,47.50
2019-04-21T10:56:41.688Z,46.90
2019-04-21T10:59:07.931Z,45.10
2019-04-21T11:01:36.862Z,44.90
2019-04-21T11:04:17.216Z,43.00
2019-04-21T11:06:39.859Z,42.50
2019-04-21T11:09:10.746Z,43.10
2019-04-21T11:11:39.724Z,43.30
2019-04-21T11:14:08.603Z,41.90
2019-04-21T11:16:37.449Z,43.10
2019-04-21T11:19:06.302Z,43.10
2019-04-21T11:21:34.836Z,43.10
2019-04-21T11:24:06.419Z,41.80
2019-04-21T11:26:35.912Z,42.20
2019-04-21T11:29:05.169Z,45.40
2019-04-21T11:31:33.848Z,44.40
2019-04-21T11:34:03.040Z,43.90
2019-04-21T11:36:31.595Z,43.80
2019-04-21T11:39:35.124Z,42.90
2019-04-21T11:41:55.363Z,40.60
2019-04-21T11:44:25.189Z,41.50
2019-04-21T11:46:54.405Z,42.00
2019-04-21T11:49:24.121Z,40.80
2019-04-21T11:51:53.241Z,41.30
2019-04-21T11:54:22.576Z,40.80
2019-04-21T11:56:52.786Z,40.50
2019-04-21T11:59:21.761Z,41.10
2019-04-21T12:01:51.722Z,43.10
2019-04-21T12:04:29.553Z,42.20
2019-04-21T12:07:25.127Z,41.50
2019-04-21T12:09:53.658Z,42.90
2019-04-21T12:12:23.248Z,43.60
2019-04-21T12:14:52.232Z,42.40
2019-04-21T12:17:20.737Z,43.10
2019-04-21T12:19:52.686Z,40.50
2019-04-21T12:29:16.904Z,39.90
2019-04-21T12:29:39.916Z,41.10
2019-04-21T12:32:03.510Z,40.00
2019-04-21T12:34:36.262Z,40.90
2019-04-21T12:37:04.834Z,39.10
2019-04-21T12:39:34.743Z,40.50
2019-04-21T12:42:03.208Z,40.80
2019-04-21T12:44:31.685Z,41.20
2019-04-21T12:47:12.041Z,40.80
2019-04-21T12:49:49.781Z,41.20
2019-04-21T12:52:24.105Z,41.00
2019-04-21T12:55:09.395Z,39.70
2019-04-21T12:58:11.057Z,39.70
2019-04-21T13:17:15.248Z,40.10
2019-04-21T13:19:45.240Z,39.30
2019-04-21T13:22:15.888Z,39.90
2019-04-21T13:24:44.664Z,41.00
2019-04-21T13:27:13.037Z,41.00
2019-04-21T13:29:41.937Z,41.10
2019-04-21T13:32:11.063Z,39.60
2019-04-21T13:34:41.999Z,40.60
2019-04-21T13:37:11.834Z,39.70
2019-04-21T13:40:35.955Z,38.70
2019-04-21T13:42:51.299Z,39.70
2019-04-21T13:45:16.272Z,40.60
2019-04-21T13:47:48.401Z,39.30
2019-04-21T13:50:17.387Z,40.10
2019-04-21T13:52:46.823Z,39.10
2019-04-21T13:55:15.843Z,38.70
2019-04-21T13:57:44.476Z,38.10
2019-04-21T14:00:13.286Z,38.10
2019-04-21T14:02:42.702Z,37.90
2019-04-21T14:05:13.501Z,38.60
2019-04-21T14:07:42.008Z,38.80
2019-04-21T14:10:23.872Z,39.20
2019-04-21T14:13:26.804Z,40.30
2019-04-21T14:16:24.465Z,39.30
2019-04-21T14:18:38.746Z,38.70
2019-04-21T14:21:07.297Z,39.10
2019-04-21T14:23:41.903Z,39.70
2019-04-21T14:26:06.490Z,39.50
2019-04-21T14:28:35.072Z,38.60
2019-04-21T14:31:04.287Z,38.10
2019-04-21T14:33:33.853Z,38.90
2019-04-21T14:36:08.492Z,37.80
2019-04-21T14:38:42.756Z,38.80
2019-04-21T14:41:12.374Z,37.70
2019-04-21T14:43:43.840Z,38.30
2019-04-21T14:46:19.404Z,38.40
2019-04-21T14:49:15.316Z,38.30
2019-04-21T14:51:56.885Z,39.40
2019-04-21T14:55:02.839Z,38.20
2019-04-21T14:57:31.573Z,38.00
2019-04-21T15:00:00.724Z,38.10
2019-04-21T15:02:29.899Z,37.50
2019-04-21T15:04:59.534Z,37.30
2019-04-21T15:07:28.583Z,36.90
2019-04-21T15:10:04.645Z,37.80
2019-04-21T15:12:29.961Z,37.90
2019-04-21T15:15:00.128Z,37.80
2019-04-21T15:17:35.804Z,38.20
2019-04-21T15:20:11.129Z,38.80
2019-04-21T15:22:38.580Z,37.50
2019-04-21T15:25:10.030Z,38.30
2019-04-21T15:27:50.741Z,37.70
2019-04-21T15:30:30.610Z,38.10
2019-04-21T15:33:04.498Z,37.50
2019-04-21T15:42:39.052Z,44.10
2019-04-21T15:45:30.663Z,40.10
2019-04-21T15:48:37.155Z,42.80
2019-04-21T15:52:56.159Z,43.80
2019-04-21T17:06:53.231Z,41.10
2019-04-21T17:09:22.973Z,40.70
2019-04-21T17:11:57.528Z,40.30
2019-04-21T17:14:37.481Z,40.50
2019-04-21T17:17:17.885Z,39.70
2019-04-21T17:19:29.390Z,39.70
2019-04-21T17:21:53.344Z,41.50
2019-04-21T17:24:22.203Z,39.60
2019-04-21T17:26:51.374Z,41.10
2019-04-21T17:29:20.878Z,39.20
2019-04-21T17:31:49.822Z,39.30
2019-04-21T17:34:23.003Z,39.50
2019-04-21T17:36:48.829Z,43.20
2019-04-21T17:39:18.692Z,44.00
2019-04-21T17:42:00.399Z,42.60
2019-04-21T17:44:17.365Z,43.50
2019-04-21T17:46:51.572Z,41.60
2019-04-21T17:49:16.997Z,42.10
2019-04-21T17:52:01.070Z,40.60
2019-04-21T17:54:41.837Z,42.20
2019-04-21T17:57:27.797Z,42.30
2019-04-21T18:02:31.071Z,43.90
2019-04-21T18:04:58.591Z,44.30
2019-04-21T18:07:31.598Z,43.90
2019-04-21T18:10:04.701Z,44.30
2019-04-21T18:12:30.373Z,43.50
2019-04-21T18:14:54.160Z,44.00
2019-04-21T18:17:14.180Z,43.90
2019-04-21T18:19:46.981Z,45.10
2019-04-21T18:22:34.157Z,45.90
2019-04-21T18:25:03.949Z,46.50
2019-04-21T18:27:28.044Z,45.80
2019-04-21T18:29:59.929Z,44.30
2019-04-21T18:32:34.340Z,44.70
2019-04-21T18:35:24.615Z,46.50
2019-04-21T18:38:08.364Z,46.80
2019-04-21T18:40:33.002Z,46.10
2019-04-21T18:43:38.796Z,47.20
2019-04-21T18:46:19.132Z,47.10
2019-04-21T18:48:57.093Z,48.60
2019-04-21T18:51:54.273Z,48.50
2019-04-21T18:54:37.410Z,48.80
2019-04-21T18:56:56.536Z,49.30
2019-04-21T18:59:21.224Z,49.00
2019-04-21T19:01:53.733Z,49.50
2019-04-21T19:04:24.800Z,49.70
2019-04-21T19:07:02.619Z,49.20
2019-04-21T19:09:47.373Z,51.50
2019-04-21T19:12:10.075Z,51.30
2019-04-21T19:14:52.114Z,51.10
2019-04-21T19:17:39.432Z,50.10
2019-04-21T19:19:44.136Z,51.90
2019-04-21T19:22:14.203Z,51.70
2019-04-21T19:24:42.395Z,52.10
2019-04-21T19:27:15.665Z,52.30
2019-04-21T19:29:45.750Z,56.00
2019-04-21T19:32:15.019Z,54.30
2019-04-21T19:34:30.481Z,54.60
2019-04-21T19:37:04.165Z,55.00
2019-04-21T19:39:39.073Z,57.30
2019-04-21T19:42:08.595Z,58.30
2019-04-21T19:44:47.007Z,59.60
2019-04-21T19:47:16.666Z,60.90
2019-04-21T19:49:49.978Z,61.40
2019-04-21T19:52:05.501Z,64.30
2019-04-21T19:54:33.968Z,67.50
2019-04-21T19:56:58.667Z,69.40
2019-04-21T19:59:34.614Z,68.90
2019-04-21T20:01:58.463Z,76.70
2019-04-21T20:04:34.349Z,88.40
2019-04-21T20:07:05.798Z,85.10
2019-04-21T20:09:47.760Z,81.40
2019-04-21T20:12:09.531Z,81.30
2019-04-21T20:15:08.924Z,87.30
2019-04-21T20:17:10.001Z,90.60
2019-04-21T20:19:32.130Z,89.10
2019-04-21T20:22:00.940Z,86.80
2019-04-21T20:24:32.507Z,85.40
2019-04-21T20:27:07.694Z,90.30
2019-04-21T20:29:49.939Z,87.30
2019-04-21T20:32:28.945Z,87.10
2019-04-21T20:34:56.306Z,88.00
2019-04-21T20:37:21.462Z,88.40
2019-04-21T20:39:40.320Z,91.00
2019-04-21T20:42:15.651Z,90.40
2019-04-21T20:44:54.534Z,88.80
2019-04-21T20:47:13.132Z,90.30
2019-04-21T20:49:38.546Z,91.20
2019-04-21T20:52:24.460Z,91.50
2019-04-21T20:54:49.370Z,91.80
2019-04-21T20:57:24.193Z,91.40
2019-04-21T20:59:43.912Z,91.00
2019-04-21T21:02:20.104Z,91.40
2019-04-21T21:04:45.040Z,92.60
2019-04-21T21:07:34.613Z,92.50
2019-04-21T21:10:00.358Z,93.80
2019-04-21T21:12:34.265Z,93.00
2019-04-21T21:14:50.279Z,92.90
2019-04-21T21:17:44.168Z,93.90
2019-04-21T21:19:53.594Z,94.30
2019-04-21T21:22:18.309Z,95.20
2019-04-21T21:24:53.458Z,94.10
2019-04-21T21:27:25.489Z,94.50
2019-04-21T21:29:56.023Z,95.20
2019-04-21T21:32:27.441Z,95.20
2019-04-21T21:34:57.015Z,95.00
2019-04-21T21:37:32.204Z,95.10
2019-04-21T21:40:17.668Z,95.10
2019-04-21T21:42:11.823Z,95.90
2019-04-21T21:44:50.529Z,95.40
2019-04-21T21:47:23.985Z,95.40
2019-04-21T21:49:57.706Z,95.20
2019-04-21T21:52:22.517Z,95.20
2019-04-21T21:54:41.337Z,95.40
2019-04-21T21:57:10.272Z,95.20
2019-04-21T21:59:40.408Z,95.60
2019-04-21T22:02:15.143Z,94.60
2019-04-21T22:04:44.995Z,94.20
2019-04-21T22:07:14.813Z,93.50
2019-04-21T22:09:40.222Z,93.60
2019-04-21T22:12:10.366Z,94.30
2019-04-21T22:14:44.930Z,93.60
2019-04-21T22:17:24.769Z,92.30
2019-04-21T22:20:05.264Z,91.70
2019-04-21T22:22:23.121Z,91.10
2019-04-21T22:24:53.455Z,91.30
2019-04-21T22:27:12.881Z,90.70
2019-04-21T22:29:46.043Z,90.60
2019-04-21T22:32:17.367Z,90.20
2019-04-21T22:34:47.719Z,89.80
2019-04-21T22:37:26.003Z,89.10
2019-04-21T22:39:59.680Z,88.20
2019-04-21T22:42:20.977Z,88.20
2019-04-21T22:44:42.887Z,88.00
2019-04-21T22:47:17.704Z,88.10
2019-04-21T22:49:41.476Z,87.30
2019-04-21T22:52:15.120Z,86.70
2019-04-21T22:54:42.867Z,86.70
2019-04-21T22:57:17.542Z,86.80
2019-04-21T22:59:46.305Z,86.30
2019-04-21T23:02:18.502Z,86.90
2019-04-21T23:04:47.601Z,85.60
2019-04-21T23:07:15.877Z,86.40
2019-04-21T23:09:43.164Z,87.10
2019-04-21T23:12:19.407Z,86.60
2019-04-21T23:14:49.574Z,88.00
2019-04-21T23:17:32.785Z,87.40
2019-04-21T23:20:05.620Z,87.30
2019-04-21T23:22:27.582Z,87.00
2019-04-21T23:25:03.790Z,87.20
2019-04-21T23:27:26.332Z,87.20
2019-04-21T23:30:08.412Z,87.70
2019-04-21T23:32:24.123Z,87.90
2019-04-21T23:34:44.148Z,88.30
2019-04-21T23:37:18.488Z,88.20
2019-04-21T23:39:43.933Z,88.10
2019-04-21T23:42:22.535Z,88.50
2019-04-21T23:44:47.490Z,89.10
2019-04-21T23:47:27.839Z,90.00
2019-04-21T23:49:53.131Z,89.60
2019-04-21T23:52:15.989Z,90.00
2019-04-21T23:54:43.301Z,90.20
2019-04-21T23:57:18.082Z,90.10
2019-04-21T23:59:48.126Z,90.20
